Gilmore City, Iowa
Current Conditions -  °F | °C
As of 6:55 AM on Wednesday 26 Nov 2014 (Local Time) from KFOD Reporting Station
Overcast Overcast  
Wind Chill: 16°   Ceiling: 1400
Heat Index: 27°   Visibility: 10mi
Dew Point: 23°   Wind: 12mph
Humidity: 86%   Direction: 100°E
Pressure: 29.91"   Gusts: NA
Location:  42.73°N, 94.44°W
Report Text: KFOD 261255Z AUTO 10010KT 10SM BKN014 OVC021 M03/M05 A2991 RMK AO1 P0001
Loading
Personal Weather Stations






























Interactive Weather Map New forecast layout! Learn more

10-Day Weather Forecast

Advertisements
Track Severe Weather on mobile